createdAt,value
2023-04-23T00:00:27.048Z,43.87
2023-04-23T00:02:58.718Z,42.17
2023-04-23T00:05:29.396Z,43.83
2023-04-23T00:08:01.631Z,37.43
2023-04-23T00:10:30.488Z,40.93
2023-04-23T00:12:59.447Z,43.00
2023-04-23T00:15:28.713Z,35.93
2023-04-23T00:17:57.087Z,41.07
2023-04-23T00:20:25.299Z,42.83
2023-04-23T00:22:54.920Z,36.87
2023-04-23T00:25:23.421Z,41.13
2023-04-23T00:27:51.626Z,40.57
2023-04-23T00:30:19.977Z,42.83
2023-04-23T00:32:48.578Z,38.50
2023-04-23T00:35:17.023Z,39.87
2023-04-23T00:37:45.382Z,34.47
2023-04-23T00:40:15.266Z,34.00
2023-04-23T00:42:44.719Z,43.17
2023-04-23T00:45:13.413Z,38.33
2023-04-23T00:47:42.202Z,35.77
2023-04-23T00:50:11.510Z,34.50
2023-04-23T00:52:40.838Z,34.77
2023-04-23T00:55:09.957Z,34.87
2023-04-23T00:57:40.931Z,38.60
2023-04-23T01:00:12.195Z,38.43
2023-04-23T01:02:41.072Z,36.50
2023-04-23T01:05:11.605Z,36.50
2023-04-23T01:07:40.094Z,33.30
2023-04-23T01:10:10.855Z,34.33
2023-04-23T01:12:40.621Z,35.23
2023-04-23T01:15:10.486Z,33.20
2023-04-23T01:17:38.823Z,34.80
2023-04-23T01:20:09.669Z,32.10
2023-04-23T01:22:39.675Z,34.20
2023-04-23T01:25:10.337Z,34.80
2023-04-23T01:27:39.326Z,37.47
2023-04-23T01:30:08.794Z,32.17
2023-04-23T01:32:37.729Z,37.43
2023-04-23T01:35:08.384Z,33.97
2023-04-23T01:37:37.391Z,34.37
2023-04-23T01:40:08.911Z,33.17
2023-04-23T01:42:37.582Z,32.07
2023-04-23T01:45:08.042Z,31.87
2023-04-23T01:47:36.935Z,33.30
2023-04-23T01:50:05.591Z,34.17
2023-04-23T01:52:33.915Z,32.70
2023-04-23T01:55:02.389Z,30.70
2023-04-23T01:57:32.276Z,32.27
2023-04-23T02:00:08.158Z,29.77
2023-04-23T02:02:44.200Z,29.10
2023-04-23T02:05:14.691Z,32.77
2023-04-23T02:07:43.878Z,36.13
2023-04-23T02:10:12.833Z,31.73
2023-04-23T02:12:42.723Z,30.97
2023-04-23T02:15:12.438Z,34.13
2023-04-23T02:17:41.803Z,35.00
2023-04-23T02:20:11.835Z,31.43
2023-04-23T02:22:41.940Z,32.67
2023-04-23T02:25:11.092Z,31.77
2023-04-23T02:27:39.416Z,28.53
2023-04-23T02:30:11.587Z,32.63
2023-04-23T02:32:40.946Z,34.63
2023-04-23T02:35:10.577Z,31.20
2023-04-23T02:37:39.725Z,31.83
2023-04-23T02:40:09.360Z,29.37
2023-04-23T02:42:38.147Z,31.37
2023-04-23T02:45:07.926Z,29.37
2023-04-23T02:47:37.665Z,32.37
2023-04-23T02:50:07.801Z,29.83
2023-04-23T02:52:36.709Z,34.13
2023-04-23T02:55:05.646Z,30.63
2023-04-23T02:57:34.597Z,34.83
2023-04-23T03:00:05.928Z,33.20
2023-04-23T03:02:42.016Z,29.67
2023-04-23T03:05:11.194Z,27.97
2023-04-23T03:07:39.602Z,28.17
2023-04-23T03:10:09.027Z,26.37
2023-04-23T03:12:37.490Z,28.47
2023-04-23T03:15:07.468Z,29.97
2023-04-23T03:17:38.715Z,27.07
2023-04-23T03:20:11.642Z,28.50
2023-04-23T03:22:41.365Z,26.90
2023-04-23T03:25:10.484Z,29.27
2023-04-23T03:27:40.523Z,28.40
2023-04-23T03:30:11.125Z,29.60
2023-04-23T03:32:40.025Z,29.23
2023-04-23T03:35:10.821Z,31.57
2023-04-23T03:37:42.765Z,32.87
2023-04-23T03:40:11.687Z,31.83
2023-04-23T03:42:42.374Z,28.23
2023-04-23T03:45:14.272Z,30.13
2023-04-23T03:47:42.786Z,28.90
2023-04-23T03:50:13.927Z,31.13
2023-04-23T03:52:44.841Z,31.00
2023-04-23T03:55:21.171Z,24.80
2023-04-23T03:57:49.737Z,32.70
2023-04-23T04:00:27.526Z,27.97
2023-04-23T04:02:55.976Z,26.70
2023-04-23T04:05:28.897Z,26.73
2023-04-23T04:07:57.406Z,28.53
2023-04-23T04:10:27.230Z,27.50
2023-04-23T04:12:55.496Z,29.60
2023-04-23T04:15:24.460Z,29.90
2023-04-23T04:17:52.706Z,25.03
2023-04-23T04:20:20.996Z,26.57
2023-04-23T04:22:50.630Z,26.63
2023-04-23T04:25:18.933Z,24.17
2023-04-23T04:27:47.167Z,27.87
2023-04-23T04:30:15.870Z,25.33
2023-04-23T04:32:45.700Z,22.60
2023-04-23T04:35:14.487Z,21.13
2023-04-23T04:37:43.887Z,24.40
2023-04-23T04:40:15.219Z,21.33
2023-04-23T04:42:43.511Z,21.10
2023-04-23T04:45:12.365Z,20.27
2023-04-23T04:47:41.364Z,21.33
2023-04-23T04:50:10.347Z,16.87
2023-04-23T04:52:41.708Z,23.90
2023-04-23T04:55:11.012Z,18.33
2023-04-23T04:57:40.774Z,19.33
2023-04-23T05:00:23.613Z,17.43
2023-04-23T05:02:52.312Z,17.47
2023-04-23T05:05:21.475Z,23.13
2023-04-23T05:07:49.751Z,20.30
2023-04-23T05:10:18.178Z,18.57
2023-04-23T05:12:48.156Z,19.50
2023-04-23T05:15:16.566Z,18.43
2023-04-23T05:17:45.209Z,17.87
2023-04-23T05:20:14.429Z,18.87
2023-04-23T05:22:43.861Z,15.70
2023-04-23T05:25:12.876Z,20.53
2023-04-23T05:27:41.527Z,20.77
2023-04-23T05:30:12.411Z,18.70
2023-04-23T05:32:40.850Z,16.10
2023-04-23T05:35:09.914Z,16.33
2023-04-23T05:37:38.171Z,19.33
2023-04-23T05:40:07.936Z,18.10
2023-04-23T05:42:37.344Z,20.67
2023-04-23T05:45:08.550Z,19.73
2023-04-23T05:47:41.406Z,16.87
2023-04-23T05:50:11.653Z,16.10
2023-04-23T05:52:40.050Z,16.57
2023-04-23T05:55:09.786Z,19.07
2023-04-23T05:57:39.519Z,17.93
2023-04-23T06:00:11.852Z,16.77
2023-04-23T06:02:44.535Z,16.27
2023-04-23T06:05:13.496Z,17.40
2023-04-23T06:07:42.281Z,18.70
2023-04-23T06:10:10.961Z,13.47
2023-04-23T06:12:40.217Z,15.37
2023-04-23T06:15:09.728Z,15.10
2023-04-23T06:17:38.333Z,16.13
2023-04-23T06:20:11.896Z,11.70
2023-04-23T06:22:52.202Z,15.53
2023-04-23T06:25:20.582Z,11.50
2023-04-23T06:27:48.790Z,12.60
2023-04-23T06:30:22.225Z,11.20
2023-04-23T06:32:51.586Z,9.83
2023-04-23T06:35:21.640Z,12.00
2023-04-23T06:37:50.085Z,14.30
2023-04-23T06:40:18.560Z,14.73
2023-04-23T06:42:47.672Z,11.40
2023-04-23T06:45:21.468Z,11.47
2023-04-23T06:47:51.113Z,12.73
2023-04-23T06:50:19.488Z,8.57
2023-04-23T06:52:49.258Z,12.80
2023-04-23T06:55:17.490Z,11.67
2023-04-23T06:57:45.851Z,10.87
2023-04-23T07:00:14.726Z,9.67
2023-04-23T07:02:44.628Z,9.67
2023-04-23T07:05:13.083Z,10.30
2023-04-23T07:07:43.455Z,11.80
2023-04-23T07:10:15.025Z,9.13
2023-04-23T07:12:45.318Z,8.27
2023-04-23T07:15:13.644Z,10.33
2023-04-23T07:17:42.004Z,9.17
2023-04-23T07:20:10.695Z,10.60
2023-04-23T07:22:38.990Z,11.43
2023-04-23T07:25:08.770Z,9.27
2023-04-23T07:27:38.484Z,10.90
2023-04-23T07:30:08.145Z,7.60
2023-04-23T07:32:36.501Z,6.80
2023-04-23T07:35:05.420Z,9.13
2023-04-23T07:37:33.631Z,8.70
2023-04-23T07:40:02.456Z,9.40
2023-04-23T07:42:30.730Z,9.90
2023-04-23T07:45:00.584Z,10.00
2023-04-23T07:47:28.866Z,9.80
2023-04-23T07:49:57.128Z,8.90
2023-04-23T07:52:25.344Z,7.20
2023-04-23T07:54:53.652Z,9.57
2023-04-23T07:57:22.009Z,5.97
2023-04-23T07:59:50.644Z,9.20
2023-04-23T08:02:23.917Z,11.03
2023-04-23T08:04:52.474Z,8.53
2023-04-23T08:07:21.136Z,11.40
2023-04-23T08:09:49.446Z,8.47
2023-04-23T08:12:18.077Z,9.33
2023-04-23T08:14:47.414Z,12.60
2023-04-23T08:17:20.082Z,8.10
2023-04-23T08:19:48.372Z,7.23
2023-04-23T08:22:17.291Z,8.93
2023-04-23T08:24:46.409Z,8.03
2023-04-23T08:27:14.711Z,6.90
2023-04-23T08:29:43.144Z,10.68
2023-04-23T08:32:11.609Z,7.90
2023-04-23T08:34:41.245Z,9.23
2023-04-23T08:37:16.553Z,8.43
2023-04-23T08:39:51.763Z,10.17
2023-04-23T08:42:28.157Z,6.43
2023-04-23T08:44:56.787Z,12.13
2023-04-23T08:47:26.274Z,5.70
2023-04-23T08:49:56.641Z,5.80
2023-04-23T08:52:26.002Z,8.35
2023-04-23T08:54:55.358Z,6.67
2023-04-23T08:57:23.768Z,13.88
2023-04-23T08:59:53.335Z,8.32
2023-04-23T09:02:21.946Z,6.15
2023-04-23T09:04:51.896Z,8.13
2023-04-23T09:07:22.242Z,6.70
2023-04-23T09:09:50.710Z,8.45
2023-04-23T09:12:19.018Z,8.13
2023-04-23T09:14:47.260Z,8.48
2023-04-23T09:17:15.568Z,8.32
2023-04-23T09:19:44.378Z,6.53
2023-04-23T09:22:13.128Z,6.75
2023-04-23T09:24:44.473Z,6.85
2023-04-23T09:27:12.745Z,5.88
2023-04-23T09:29:41.372Z,8.18
2023-04-23T09:32:11.061Z,7.50
2023-04-23T09:34:39.373Z,7.45
2023-04-23T09:37:11.070Z,7.65
2023-04-23T09:39:40.946Z,7.20
2023-04-23T09:42:12.919Z,6.10
2023-04-23T09:44:41.226Z,6.20
2023-04-23T09:47:12.112Z,7.43
2023-04-23T09:49:47.894Z,10.77
2023-04-23T09:52:16.487Z,7.78
2023-04-23T09:54:46.454Z,8.20
2023-04-23T09:57:16.982Z,5.63
2023-04-23T09:59:47.844Z,4.55
2023-04-23T10:02:18.964Z,6.82
2023-04-23T10:05:00.688Z,7.03
2023-04-23T10:07:35.983Z,6.68
2023-04-23T10:10:04.521Z,6.45
2023-04-23T10:12:52.294Z,7.82
2023-04-23T10:15:22.570Z,6.22
2023-04-23T10:17:52.050Z,6.75
2023-04-23T10:20:22.835Z,7.40
2023-04-23T10:22:52.425Z,4.78
2023-04-23T10:25:22.418Z,7.18
2023-04-23T10:27:54.810Z,7.05
2023-04-23T10:30:24.018Z,3.50
2023-04-23T10:32:52.525Z,5.25
2023-04-23T10:35:20.833Z,5.68
2023-04-23T10:37:50.558Z,5.40
2023-04-23T10:40:24.797Z,6.50
2023-04-23T10:42:55.680Z,9.45
2023-04-23T10:45:25.739Z,7.60
2023-04-23T10:47:55.936Z,6.13
2023-04-23T10:50:26.353Z,5.03
2023-04-23T10:52:57.162Z,7.05
2023-04-23T10:55:27.471Z,5.18
2023-04-23T10:58:03.347Z,7.90
2023-04-23T11:00:46.491Z,8.52
2023-04-23T11:03:42.968Z,6.80
2023-04-23T11:06:15.690Z,7.25
2023-04-23T11:08:54.214Z,7.10
2023-04-23T11:11:39.909Z,4.95
2023-04-23T11:14:15.544Z,8.57
2023-04-23T11:16:44.258Z,8.07
2023-04-23T11:19:13.360Z,5.55
2023-04-23T11:22:01.619Z,5.45
2023-04-23T11:24:31.872Z,6.70
2023-04-23T11:27:01.226Z,9.57
2023-04-23T11:29:31.017Z,5.07
2023-04-23T11:32:02.914Z,6.65
2023-04-23T11:34:33.329Z,5.68
2023-04-23T11:37:05.012Z,3.85
2023-04-23T11:39:33.838Z,7.20
2023-04-23T11:42:03.353Z,6.75
2023-04-23T11:44:33.809Z,5.25
2023-04-23T11:47:03.094Z,4.85
2023-04-23T11:49:31.498Z,4.03
2023-04-23T11:52:01.822Z,6.65
2023-04-23T11:54:30.694Z,3.78
2023-04-23T11:56:59.881Z,6.00
2023-04-23T11:59:29.079Z,5.10
2023-04-23T12:01:59.970Z,6.55
2023-04-23T12:04:30.639Z,4.38
2023-04-23T12:07:00.376Z,8.25
2023-04-23T12:09:30.457Z,5.47
2023-04-23T12:11:59.365Z,4.07
2023-04-23T12:14:30.053Z,5.32
2023-04-23T12:17:09.905Z,6.40
2023-04-23T12:19:38.404Z,4.17
2023-04-23T12:22:08.556Z,4.53
2023-04-23T12:24:48.476Z,4.30
2023-04-23T12:27:20.398Z,4.82
2023-04-23T12:29:49.535Z,5.93
2023-04-23T12:32:22.965Z,6.25
2023-04-23T12:34:55.803Z,7.97
2023-04-23T12:37:26.847Z,6.95
2023-04-23T12:39:56.892Z,4.10
2023-04-23T12:42:25.845Z,4.77
2023-04-23T12:44:55.827Z,3.80
2023-04-23T12:47:25.804Z,7.03
2023-04-23T12:49:55.649Z,4.53
2023-04-23T12:52:24.050Z,3.97
2023-04-23T12:54:56.309Z,3.27
2023-04-23T12:57:25.280Z,3.20
2023-04-23T12:59:54.908Z,4.03
2023-04-23T13:02:25.983Z,3.93
2023-04-23T13:05:00.753Z,4.80
2023-04-23T13:07:29.515Z,4.00
2023-04-23T13:09:59.678Z,4.20
2023-04-23T13:12:28.276Z,5.57
2023-04-23T13:14:56.599Z,3.43
2023-04-23T13:17:28.531Z,5.73
2023-04-23T13:19:57.243Z,4.27
2023-04-23T13:22:28.716Z,4.40
2023-04-23T13:24:58.101Z,4.47
2023-04-23T13:27:29.234Z,5.17
2023-04-23T13:29:58.834Z,3.63
2023-04-23T13:32:32.128Z,4.20
2023-04-23T13:35:04.046Z,5.90
2023-04-23T13:37:33.628Z,6.53
2023-04-23T13:40:02.850Z,5.13
2023-04-23T13:42:32.303Z,7.07
2023-04-23T13:45:00.579Z,6.83
2023-04-23T13:47:33.354Z,4.70
2023-04-23T13:50:03.052Z,5.70
2023-04-23T13:52:31.803Z,4.17
2023-04-23T13:55:00.326Z,7.57
2023-04-23T13:57:28.757Z,7.13
2023-04-23T13:59:57.143Z,5.40
2023-04-23T14:02:25.487Z,6.00
2023-04-23T14:04:55.259Z,6.27
2023-04-23T14:07:23.802Z,4.83
2023-04-23T14:09:52.940Z,5.97
2023-04-23T14:12:21.542Z,8.40
2023-04-23T14:14:51.602Z,6.83
2023-04-23T14:17:19.846Z,4.00
2023-04-23T14:19:48.566Z,5.30
2023-04-23T14:22:18.325Z,5.43
2023-04-23T14:24:50.798Z,2.77
2023-04-23T14:27:19.171Z,2.57
2023-04-23T14:29:52.303Z,2.80
2023-04-23T14:32:20.945Z,3.30
2023-04-23T14:34:49.292Z,4.00
2023-04-23T14:37:19.015Z,5.00
2023-04-23T14:39:47.730Z,2.40
2023-04-23T14:42:15.987Z,3.77
2023-04-23T14:44:44.351Z,4.07
2023-04-23T14:47:12.626Z,3.60
2023-04-23T14:49:41.901Z,5.17
2023-04-23T14:52:11.139Z,4.30
2023-04-23T14:54:40.830Z,3.40
2023-04-23T14:57:09.222Z,4.77
2023-04-23T14:59:37.483Z,4.37
2023-04-23T15:02:05.960Z,3.83
2023-04-23T15:04:36.526Z,4.20
2023-04-23T15:07:04.948Z,3.97
2023-04-23T15:09:33.780Z,2.67
2023-04-23T15:12:07.003Z,2.93
2023-04-23T15:14:39.066Z,3.97
2023-04-23T15:17:07.395Z,4.07
2023-04-23T15:19:35.695Z,3.30
2023-04-23T15:22:04.075Z,3.53
2023-04-23T15:24:32.352Z,4.83
2023-04-23T15:27:01.243Z,4.33
2023-04-23T15:29:31.159Z,4.00
2023-04-23T15:31:59.683Z,5.17
2023-04-23T15:34:28.032Z,4.77
2023-04-23T15:36:56.262Z,3.43
2023-04-23T15:39:24.865Z,4.45
2023-04-23T15:41:53.799Z,4.30
2023-04-23T15:44:22.065Z,6.17
2023-04-23T15:46:51.772Z,3.93
2023-04-23T15:49:20.084Z,5.43
2023-04-23T15:51:48.356Z,3.93
2023-04-23T15:54:16.608Z,3.90
2023-04-23T15:56:44.919Z,4.13
2023-04-23T15:59:13.658Z,5.17
2023-04-23T16:01:42.073Z,6.00
2023-04-23T16:04:12.441Z,5.17
2023-04-23T16:06:40.944Z,4.63
2023-04-23T16:09:09.582Z,4.10
2023-04-23T16:11:37.983Z,4.03
2023-04-23T16:14:07.133Z,4.87
2023-04-23T16:16:35.737Z,5.77
2023-04-23T16:19:04.059Z,4.20
2023-04-23T16:21:33.773Z,5.33
2023-04-23T16:24:02.051Z,5.63
2023-04-23T16:26:30.689Z,8.13
2023-04-23T16:29:11.325Z,5.43
2023-04-23T16:31:48.084Z,5.80
2023-04-23T16:34:16.376Z,5.37
2023-04-23T16:36:46.205Z,6.63
2023-04-23T16:39:14.547Z,7.50
2023-04-23T16:41:42.837Z,6.07
2023-04-23T16:44:11.226Z,4.87
2023-04-23T16:46:39.806Z,4.80
2023-04-23T16:49:08.265Z,5.50
2023-04-23T16:51:36.521Z,6.67
2023-04-23T16:54:06.929Z,6.37
2023-04-23T16:56:35.310Z,6.37
2023-04-23T16:59:04.228Z,6.50
2023-04-23T17:01:32.585Z,3.57
2023-04-23T17:04:01.138Z,4.27
2023-04-23T17:06:30.952Z,3.70
2023-04-23T17:09:00.445Z,3.90
2023-04-23T17:11:32.077Z,3.20
2023-04-23T17:14:00.740Z,3.13
2023-04-23T17:16:29.173Z,5.63
2023-04-23T17:18:57.934Z,4.07
2023-04-23T17:21:27.340Z,2.37
2023-04-23T17:23:55.654Z,2.83
2023-04-23T17:26:24.028Z,4.13
2023-04-23T17:28:53.754Z,2.43
2023-04-23T17:31:22.086Z,2.80
2023-04-23T17:33:50.626Z,1.67
2023-04-23T17:36:19.220Z,1.87
2023-04-23T17:38:47.528Z,1.57
2023-04-23T17:41:16.805Z,2.67
2023-04-23T17:43:45.098Z,2.70
2023-04-23T17:46:14.898Z,2.13
2023-04-23T17:48:43.242Z,3.20
2023-04-23T17:51:11.552Z,2.20
2023-04-23T17:53:39.856Z,1.90
2023-04-23T17:56:08.084Z,1.37
2023-04-23T17:58:38.227Z,2.63
2023-04-23T18:01:08.891Z,2.67
2023-04-23T18:03:39.160Z,2.40
2023-04-23T18:06:09.259Z,7.90
2023-04-23T18:08:38.465Z,2.50
2023-04-23T18:11:08.383Z,3.27
2023-04-23T18:13:37.503Z,7.27
2023-04-23T18:16:05.935Z,5.10
2023-04-23T18:18:34.568Z,5.77
2023-04-23T18:21:05.124Z,3.90
2023-04-23T18:23:33.452Z,3.80
2023-04-23T18:26:02.119Z,3.87
2023-04-23T18:28:30.503Z,3.30
2023-04-23T18:31:02.680Z,3.40
2023-04-23T18:33:33.682Z,7.60
2023-04-23T18:36:06.669Z,3.33
2023-04-23T18:38:40.791Z,4.20
2023-04-23T18:41:09.096Z,7.30
2023-04-23T18:43:37.386Z,4.53
2023-04-23T19:39:31.016Z,45.20
2023-04-23T19:41:59.440Z,41.17
2023-04-23T19:44:27.838Z,39.37
2023-04-23T19:46:56.595Z,30.93
2023-04-23T19:49:24.983Z,13.90
2023-04-23T19:51:54.502Z,9.43
2023-04-23T19:54:24.510Z,5.50
2023-04-23T19:56:54.438Z,4.03
2023-04-23T19:59:22.890Z,4.27
2023-04-23T20:01:51.096Z,3.37
2023-04-23T20:04:19.429Z,5.07
2023-04-23T20:06:48.021Z,5.23
2023-04-23T20:09:21.532Z,7.10
2023-04-23T20:11:49.801Z,7.10
2023-04-23T20:14:19.599Z,9.63
2023-04-23T20:16:48.473Z,8.43
2023-04-23T20:19:17.263Z,7.27
2023-04-23T20:21:46.027Z,6.27
2023-04-23T20:24:15.278Z,5.97
2023-04-23T20:26:43.602Z,9.10
2023-04-23T20:29:11.878Z,5.57
2023-04-23T20:31:41.871Z,5.90
2023-04-23T20:34:11.050Z,8.13
2023-04-23T20:36:39.358Z,7.77
2023-04-23T20:39:08.255Z,8.60
2023-04-23T20:41:36.708Z,8.13
2023-04-23T20:44:06.057Z,9.90
2023-04-23T20:46:34.510Z,6.70
2023-04-23T20:49:04.772Z,8.03
2023-04-23T20:51:34.453Z,7.30
2023-04-23T20:54:03.544Z,6.37
2023-04-23T20:56:32.111Z,7.50
2023-04-23T20:59:00.910Z,5.83
2023-04-23T21:01:29.376Z,7.03
2023-04-23T21:04:00.183Z,7.33
2023-04-23T21:06:31.485Z,8.20
2023-04-23T21:09:00.146Z,6.77
2023-04-23T21:11:28.490Z,7.97
2023-04-23T21:13:58.101Z,5.37
2023-04-23T21:16:27.855Z,5.40
2023-04-23T21:18:56.163Z,4.97
2023-04-23T21:21:27.985Z,6.03
2023-04-23T21:23:59.624Z,6.00
2023-04-23T21:26:28.572Z,7.23
2023-04-23T21:28:57.263Z,9.40
2023-04-23T21:31:36.416Z,9.93
2023-04-23T21:34:04.727Z,10.37
2023-04-23T21:36:33.022Z,12.13
2023-04-23T21:39:02.747Z,12.83
2023-04-23T21:41:31.085Z,14.27
2023-04-23T21:43:59.380Z,16.33
2023-04-23T21:46:27.973Z,21.77
2023-04-23T21:48:56.525Z,27.03
2023-04-23T21:51:25.107Z,29.17
2023-04-23T21:53:53.352Z,28.27
2023-04-23T21:56:23.100Z,31.43
2023-04-23T21:58:51.434Z,36.03
2023-04-23T22:01:19.732Z,35.47
2023-04-23T22:03:48.131Z,36.67
2023-04-23T22:06:17.760Z,35.73
2023-04-23T22:08:47.269Z,35.00
2023-04-23T22:11:17.600Z,32.97
2023-04-23T22:13:47.247Z,36.07
2023-04-23T22:16:27.326Z,37.23
2023-04-23T22:18:57.377Z,35.07
2023-04-23T22:21:25.705Z,31.67
2023-04-23T22:23:53.971Z,34.27
2023-04-23T22:26:22.283Z,35.57
2023-04-23T22:28:52.214Z,33.17
2023-04-23T22:31:20.510Z,32.97
2023-04-23T22:33:48.877Z,36.77
2023-04-23T22:36:17.128Z,37.67
2023-04-23T22:38:45.490Z,34.77
2023-04-23T22:41:13.716Z,35.90
2023-04-23T22:43:41.955Z,38.17
2023-04-23T22:46:11.752Z,35.90
2023-04-23T22:48:45.050Z,36.23
2023-04-23T22:51:13.396Z,31.80
2023-04-23T22:53:41.728Z,39.83
2023-04-23T22:56:10.047Z,37.93
2023-04-23T22:58:38.336Z,35.97
2023-04-23T23:01:06.919Z,40.40
2023-04-23T23:03:36.963Z,35.90
2023-04-23T23:06:05.738Z,35.50
2023-04-23T23:08:34.043Z,39.10
2023-04-23T23:11:02.465Z,32.03
2023-04-23T23:13:30.796Z,32.80
2023-04-23T23:16:02.389Z,37.60
2023-04-23T23:18:30.786Z,34.80
2023-04-23T23:21:00.539Z,41.93
2023-04-23T23:23:28.936Z,36.77
2023-04-23T23:25:59.865Z,35.87
2023-04-23T23:28:28.549Z,35.53
2023-04-23T23:30:57.815Z,41.67
2023-04-23T23:33:27.274Z,42.13
2023-04-23T23:35:56.182Z,30.73
2023-04-23T23:38:25.903Z,37.40
2023-04-23T23:40:54.506Z,39.97
2023-04-23T23:43:22.789Z,36.03
2023-04-23T23:45:51.303Z,36.83
2023-04-23T23:48:19.900Z,32.50
2023-04-23T23:50:48.267Z,31.37
2023-04-23T23:53:16.540Z,34.93
2023-04-23T23:55:46.204Z,33.27
2023-04-23T23:58:14.545Z,34.67
